createdAt,value
2023-05-10T04:54:05.268Z,2.58
2023-05-10T04:57:07.974Z,4.38
2023-05-10T05:00:10.266Z,4.65
2023-05-10T05:03:12.243Z,3.53
2023-05-10T05:06:14.025Z,2.92
2023-05-10T05:09:15.789Z,3.20
2023-05-10T05:12:17.784Z,3.90
2023-05-10T05:15:19.490Z,3.50
2023-05-10T05:18:21.381Z,3.97
2023-05-10T05:21:23.231Z,4.20
2023-05-10T05:24:25.136Z,4.03
2023-05-10T05:27:28.763Z,4.45
2023-05-10T05:30:30.442Z,5.03
2023-05-10T05:33:32.377Z,4.30
2023-05-10T05:36:37.599Z,3.55
2023-05-10T05:39:39.390Z,3.95
2023-05-10T05:42:44.279Z,3.25
2023-05-10T05:45:45.947Z,4.40
2023-05-10T05:48:47.704Z,4.47
2023-05-10T05:51:51.212Z,4.95
2023-05-10T05:54:52.977Z,7.10
2023-05-10T05:57:54.937Z,5.20
2023-05-10T06:00:56.588Z,5.22
2023-05-10T06:03:58.372Z,6.00
2023-05-10T06:07:00.177Z,5.43
2023-05-10T06:10:02.074Z,5.07
2023-05-10T06:13:04.054Z,5.65
2023-05-10T06:16:06.501Z,6.22
2023-05-10T06:19:08.325Z,4.15
2023-05-10T06:22:10.299Z,4.57
2023-05-10T06:25:12.498Z,5.75
2023-05-10T06:28:14.267Z,5.47
2023-05-10T06:31:16.971Z,5.10
2023-05-10T06:34:18.771Z,5.07
2023-05-10T06:37:20.488Z,4.65
2023-05-10T06:40:22.151Z,5.47
2023-05-10T06:43:25.292Z,5.10
2023-05-10T06:46:27.011Z,4.28
2023-05-10T06:49:28.761Z,4.32
2023-05-10T06:52:30.417Z,4.65
2023-05-10T06:55:32.173Z,4.50
2023-05-10T06:58:34.278Z,4.43
2023-05-10T07:01:36.358Z,5.15
2023-05-10T07:04:38.169Z,3.17
2023-05-10T07:07:40.011Z,3.45
2023-05-10T07:10:41.706Z,3.70
2023-05-10T07:13:45.217Z,3.85
2023-05-10T07:16:47.008Z,3.90
2023-05-10T07:19:48.674Z,4.40
2023-05-10T07:22:50.467Z,4.07
2023-05-10T07:25:55.073Z,3.97
2023-05-10T07:28:56.875Z,3.75
2023-05-10T07:31:59.234Z,3.22
2023-05-10T07:35:01.119Z,2.63
2023-05-10T07:38:03.527Z,3.92
2023-05-10T07:41:05.226Z,1.88
2023-05-10T07:44:07.162Z,2.92
2023-05-10T07:47:08.830Z,2.88
2023-05-10T07:50:10.614Z,2.47
2023-05-10T07:53:12.257Z,2.33
2023-05-10T07:56:30.671Z,2.83
2023-05-10T07:59:33.161Z,4.20
2023-05-10T08:02:36.294Z,2.35
2023-05-10T08:05:38.128Z,2.08
2023-05-10T08:08:39.776Z,2.58
2023-05-10T08:11:41.629Z,3.53
2023-05-10T08:14:43.343Z,2.20
2023-05-10T08:17:46.932Z,1.73
2023-05-10T08:20:48.616Z,2.90
2023-05-10T08:23:50.606Z,1.70
2023-05-10T08:26:52.276Z,2.28
2023-05-10T08:29:53.931Z,2.00
2023-05-10T08:32:55.862Z,2.75
2023-05-10T08:35:57.640Z,2.25
2023-05-10T08:38:59.382Z,2.55
2023-05-10T08:42:02.614Z,1.92
2023-05-10T08:48:09.564Z,2.15
2023-05-10T08:51:12.420Z,2.00
2023-05-10T08:54:14.123Z,1.48
2023-05-10T08:57:15.926Z,1.90
2023-05-10T09:00:18.982Z,1.67
2023-05-10T09:03:20.862Z,1.83
2023-05-10T09:06:22.628Z,2.10
2023-05-10T09:09:25.038Z,2.25
2023-05-10T09:12:26.858Z,1.65
2023-05-10T09:15:28.691Z,1.70
2023-05-10T09:18:30.435Z,1.92
2023-05-10T09:21:32.412Z,1.58
2023-05-10T09:24:34.079Z,1.63
2023-05-10T09:27:36.519Z,2.05
2023-05-10T09:30:38.336Z,1.50
2023-05-10T09:33:49.732Z,2.63
2023-05-10T09:36:55.520Z,2.15
2023-05-10T09:39:57.217Z,1.33
2023-05-10T09:43:03.572Z,1.65
2023-05-10T09:46:10.640Z,1.95
2023-05-10T09:49:15.378Z,1.92
2023-05-10T09:52:17.447Z,2.38
2023-05-10T09:55:20.832Z,1.92
2023-05-10T09:58:22.481Z,1.50
2023-05-10T10:01:27.304Z,1.35
2023-05-10T10:04:29.842Z,2.17
2023-05-10T10:07:31.543Z,1.23
2023-05-10T10:10:33.911Z,2.88
2023-05-10T10:13:35.969Z,1.88
2023-05-10T10:16:39.941Z,1.25
2023-05-10T10:19:47.853Z,2.20
2023-05-10T10:22:49.766Z,1.65
2023-05-10T10:25:52.860Z,2.63
2023-05-10T10:32:43.949Z,1.48
2023-05-10T10:35:46.785Z,2.38
2023-05-10T10:38:48.460Z,2.63
2023-05-10T10:41:51.760Z,2.08
2023-05-10T10:45:12.850Z,1.48
2023-05-10T10:51:23.123Z,1.42
2023-05-10T10:54:30.723Z,1.70
2023-05-10T10:57:42.190Z,1.55
2023-05-10T11:00:46.356Z,1.88
2023-05-10T11:04:06.278Z,1.63
2023-05-10T11:07:17.664Z,2.78
2023-05-10T11:10:23.045Z,2.05
2023-05-10T11:13:41.333Z,1.73
2023-05-10T11:16:44.068Z,1.50
2023-05-10T11:20:10.411Z,2.50
2023-05-10T11:23:16.909Z,1.52
2023-05-10T11:26:19.039Z,1.67
2023-05-10T11:29:21.189Z,1.88
2023-05-10T11:32:23.061Z,0.95
2023-05-10T11:35:24.751Z,1.98
2023-05-10T11:38:26.639Z,2.30
2023-05-10T11:41:29.198Z,1.92
2023-05-10T11:44:32.276Z,2.40
2023-05-10T11:47:34.042Z,1.90
2023-05-10T11:50:35.734Z,1.38
2023-05-10T11:53:37.612Z,1.35
2023-05-10T11:56:40.452Z,1.25
2023-05-10T11:59:43.222Z,1.38
2023-05-10T12:02:45.138Z,1.35
2023-05-10T12:05:47.153Z,1.10
2023-05-10T12:08:50.942Z,1.92
2023-05-10T12:11:56.616Z,1.13
2023-05-10T12:14:58.338Z,0.75
2023-05-10T12:18:00.805Z,0.77
2023-05-10T12:21:04.470Z,0.75
2023-05-10T12:24:06.324Z,0.80
2023-05-10T12:27:09.452Z,1.50
2023-05-10T12:30:11.828Z,1.05
2023-05-10T12:33:15.749Z,1.60
2023-05-10T12:36:17.777Z,1.33
2023-05-10T12:39:19.412Z,0.80
2023-05-10T12:42:21.727Z,0.73
2023-05-10T12:45:23.451Z,0.90
2023-05-10T12:48:25.228Z,1.10
2023-05-10T12:51:26.874Z,1.70
2023-05-10T12:54:28.861Z,0.98
2023-05-10T12:57:30.662Z,2.55
2023-05-10T13:00:32.335Z,0.82
2023-05-10T13:03:34.270Z,1.13
2023-05-10T13:06:36.178Z,1.27
2023-05-10T13:09:37.937Z,1.50
2023-05-10T13:12:39.736Z,1.10
2023-05-10T13:15:41.459Z,1.27
2023-05-10T13:18:43.132Z,1.00
2023-05-10T13:21:47.856Z,1.25
2023-05-10T13:24:49.640Z,1.33
2023-05-10T13:27:51.310Z,1.08
2023-05-10T13:30:53.024Z,1.10
2023-05-10T13:33:54.961Z,1.67
2023-05-10T13:36:57.154Z,0.70
2023-05-10T13:39:58.811Z,1.45
2023-05-10T13:43:00.547Z,1.17
2023-05-10T13:46:02.295Z,0.93
2023-05-10T13:49:04.056Z,0.88
2023-05-10T13:52:10.881Z,1.27
2023-05-10T13:55:14.154Z,0.70
2023-05-10T13:58:15.804Z,1.23
2023-05-10T14:01:17.541Z,0.95
2023-05-10T14:04:19.440Z,0.68
2023-05-10T14:07:21.150Z,1.30
2023-05-10T14:10:22.852Z,1.05
2023-05-10T14:13:24.926Z,1.25
2023-05-10T14:16:28.016Z,0.98
2023-05-10T14:19:33.377Z,1.05
2023-05-10T14:22:35.494Z,2.28
2023-05-10T14:25:37.342Z,1.60
2023-05-10T14:28:39.062Z,1.02
2023-05-10T14:31:41.384Z,1.30
2023-05-10T14:34:43.185Z,0.85
2023-05-10T14:37:44.852Z,1.02
2023-05-10T14:40:46.502Z,1.00
2023-05-10T14:43:48.367Z,0.55
2023-05-10T14:46:51.510Z,1.92
2023-05-10T14:49:53.160Z,1.33
2023-05-10T14:52:54.859Z,1.52
2023-05-10T14:55:56.574Z,1.33
2023-05-10T14:58:58.380Z,1.13
2023-05-10T15:02:00.673Z,1.17
2023-05-10T15:05:03.092Z,1.27
2023-05-10T15:08:06.356Z,0.68
2023-05-10T15:11:08.034Z,0.50
2023-05-10T15:14:09.979Z,0.93
2023-05-10T15:17:12.047Z,0.63
2023-05-10T15:20:13.736Z,0.98
2023-05-10T15:23:15.404Z,0.20
2023-05-10T15:26:17.240Z,0.47
2023-05-10T15:29:20.916Z,1.02
2023-05-10T15:32:22.809Z,0.65
2023-05-10T15:35:24.573Z,0.65
2023-05-10T15:38:26.758Z,0.60
2023-05-10T15:41:28.950Z,2.20
2023-05-10T15:44:30.613Z,1.10
2023-05-10T15:47:32.360Z,0.88
2023-05-10T15:50:34.059Z,1.65
2023-05-10T15:53:36.056Z,0.95
2023-05-10T15:56:38.051Z,1.10
2023-05-10T15:59:39.711Z,0.68
2023-05-10T16:02:41.879Z,1.65
2023-05-10T16:05:43.652Z,0.63
2023-05-10T16:08:45.297Z,0.60
2023-05-10T16:11:47.199Z,1.17
2023-05-10T16:14:48.846Z,0.55
2023-05-10T16:17:50.908Z,0.80
2023-05-10T16:20:53.312Z,0.60
2023-05-10T16:23:56.058Z,1.08
2023-05-10T16:26:57.940Z,2.10
2023-05-10T16:29:59.940Z,1.17
2023-05-10T16:33:02.386Z,1.05
2023-05-10T16:36:06.083Z,0.77
2023-05-10T16:39:09.272Z,0.68
2023-05-10T16:42:11.227Z,1.33
2023-05-10T16:45:13.222Z,1.13
2023-05-10T16:48:14.900Z,0.93
2023-05-10T16:51:16.609Z,0.73
2023-05-10T16:54:18.550Z,0.75
2023-05-10T16:57:20.306Z,1.48
2023-05-10T17:00:22.026Z,0.85
2023-05-10T17:03:24.150Z,1.08
2023-05-10T17:06:26.004Z,0.85
2023-05-10T17:09:27.654Z,0.60
2023-05-10T17:12:29.613Z,1.25
2023-05-10T17:15:31.258Z,1.35
2023-05-10T17:18:32.951Z,1.23
2023-05-10T17:21:34.833Z,1.35
2023-05-10T17:24:36.470Z,1.42
2023-05-10T17:27:38.139Z,1.17
2023-05-10T17:30:39.882Z,0.73
2023-05-10T17:33:42.127Z,0.50
2023-05-10T17:36:43.931Z,0.63
2023-05-10T17:39:45.649Z,1.20
2023-05-10T17:42:47.662Z,0.80
2023-05-10T17:45:49.821Z,0.68
2023-05-10T17:48:51.518Z,1.75
2023-05-10T17:51:53.303Z,1.05
2023-05-10T17:54:54.997Z,0.75
2023-05-10T17:58:00.245Z,0.60
2023-05-10T18:01:02.234Z,0.98
2023-05-10T18:04:04.646Z,0.70
2023-05-10T18:07:06.471Z,0.60
2023-05-10T18:10:08.432Z,0.55
2023-05-10T18:13:10.223Z,1.42
2023-05-10T18:16:13.357Z,3.58
2023-05-10T18:22:16.751Z,1.20
2023-05-10T18:25:18.596Z,1.08
2023-05-10T18:28:20.493Z,1.25
2023-05-10T18:31:22.271Z,1.50
2023-05-10T18:34:24.187Z,1.23
2023-05-10T18:37:25.827Z,2.50
2023-05-10T18:40:27.625Z,1.08
2023-05-10T18:43:29.598Z,1.50
2023-05-10T18:46:31.386Z,1.23
2023-05-10T18:49:33.205Z,1.73
2023-05-10T18:52:36.731Z,0.50
2023-05-10T18:55:38.594Z,1.05
2023-05-10T18:58:40.331Z,1.17
2023-05-10T19:01:42.091Z,0.82
2023-05-10T19:04:43.834Z,0.82
2023-05-10T19:07:45.687Z,1.38
2023-05-10T19:10:47.330Z,1.80
2023-05-10T19:13:49.191Z,1.88
2023-05-10T19:16:52.251Z,4.43
2023-05-10T19:19:55.860Z,2.17
2023-05-10T19:23:09.088Z,0.88
2023-05-10T19:26:12.303Z,1.70
2023-05-10T19:29:14.111Z,1.00
2023-05-10T19:32:15.989Z,1.40
2023-05-10T19:35:17.955Z,1.23
2023-05-10T19:38:22.086Z,1.15
2023-05-10T19:41:23.914Z,0.68
2023-05-10T19:44:25.846Z,1.48
2023-05-10T19:47:27.611Z,1.30
2023-05-10T19:50:29.489Z,1.23
2023-05-10T19:53:31.568Z,1.00
2023-05-10T19:56:33.318Z,0.98
2023-05-10T19:59:35.421Z,1.48
2023-05-10T20:02:37.345Z,0.93
2023-05-10T20:05:39.042Z,1.27
2023-05-10T20:08:40.799Z,1.50
2023-05-10T20:11:42.513Z,1.08
2023-05-10T20:14:44.184Z,1.40
2023-05-10T20:17:46.497Z,0.98
2023-05-10T20:20:48.206Z,1.60
2023-05-10T20:23:50.013Z,0.85
2023-05-10T20:26:51.732Z,1.02
2023-05-10T20:29:53.377Z,0.82
2023-05-10T20:32:55.329Z,2.28
2023-05-10T20:35:57.374Z,0.85
2023-05-10T20:38:59.098Z,0.43
2023-05-10T20:42:00.870Z,0.60
2023-05-10T20:45:03.292Z,0.55
2023-05-10T20:48:05.248Z,0.95
2023-05-10T20:51:06.956Z,0.90
2023-05-10T20:54:08.656Z,0.38
2023-05-10T20:57:12.651Z,0.93
2023-05-10T21:00:15.010Z,0.47
